Time;durP1;ratioP1;P1;durP2;ratioP2;P2;SDS_P1;SDS_P2;PMS_P1;PMS_P2;Temp;Humidity;BMP_temperature;BMP_pressure;BME280_temperature;BME280_humidity;BME280_pressure;Samples;Min_cycle;Max_cycle;Signal;HPM_P1;HPM_P2
2023/04/23 00:01:26;;;;;;;6.35;4.85;;;15.20;99.90;;;;;;5095278;28;20207;-77
2023/04/23 00:03:55;;;;;;;6.20;5.22;;;15.30;99.90;;;;;;5111872;28;20277;-76
2023/04/23 00:06:25;;;;;;;5.68;4.88;;;15.20;99.90;;;;;;5101566;28;20658;-77
2023/04/23 00:08:53;;;;;;;6.57;5.28;;;15.20;99.90;;;;;;5110046;28;20221;-76
2023/04/23 00:11:22;;;;;;;6.63;5.43;;;15.20;99.90;;;;;;5103269;28;20220;-80
2023/04/23 00:13:50;;;;;;;6.22;4.75;;;15.10;99.90;;;;;;5112275;28;20196;-76
2023/04/23 00:16:18;;;;;;;7.22;5.82;;;15.10;99.90;;;;;;5104094;28;20329;-79
2023/04/23 00:18:45;;;;;;;6.43;4.95;;;15.00;99.90;;;;;;5111136;28;20296;-78
2023/04/23 00:21:12;;;;;;;9.15;5.32;;;14.90;99.90;;;;;;5104466;28;20201;-77
2023/04/23 00:23:39;;;;;;;8.07;5.68;;;14.90;99.90;;;;;;5111338;28;20236;-79
2023/04/23 00:26:06;;;;;;;7.43;5.32;;;15.00;99.90;;;;;;5098541;28;20235;-78
2023/04/23 00:28:34;;;;;;;7.03;5.32;;;14.80;99.90;;;;;;5110950;28;20217;-76
2023/04/23 00:31:01;;;;;;;9.20;5.47;;;14.90;99.90;;;;;;5111588;28;20200;-78
2023/04/23 00:33:28;;;;;;;8.40;5.45;;;14.90;99.90;;;;;;5115712;28;20672;-78
2023/04/23 00:35:54;;;;;;;7.35;5.85;;;14.90;99.90;;;;;;5110208;28;20212;-77
2023/04/23 00:38:21;;;;;;;6.60;5.28;;;14.80;99.90;;;;;;5114761;28;20328;-79
2023/04/23 00:40:48;;;;;;;7.22;5.35;;;14.70;99.90;;;;;;5111417;28;20564;-78
2023/04/23 00:43:16;;;;;;;8.05;6.25;;;14.80;99.90;;;;;;5115472;28;20197;-77
2023/04/23 00:45:46;;;;;;;10.05;5.93;;;14.80;99.90;;;;;;5111023;28;20221;-77
2023/04/23 00:48:13;;;;;;;7.47;5.75;;;14.70;99.90;;;;;;5115078;28;20608;-78
2023/04/23 00:50:41;;;;;;;7.88;5.53;;;14.60;99.90;;;;;;5113142;28;20231;-77
2023/04/23 00:53:08;;;;;;;7.82;5.80;;;14.50;99.90;;;;;;5114460;28;20199;-78
2023/04/23 00:55:35;;;;;;;9.27;6.38;;;14.60;99.90;;;;;;5110082;28;20200;-78
2023/04/23 00:58:02;;;;;;;7.85;5.65;;;14.50;99.90;;;;;;5111406;28;20215;-77
2023/04/23 01:00:29;;;;;;;7.43;6.10;;;14.50;99.90;;;;;;5111933;28;20200;-77
2023/04/23 01:02:58;;;;;;;9.47;6.40;;;14.50;99.90;;;;;;5110200;28;20201;-77
2023/04/23 01:05:25;;;;;;;7.00;6.13;;;14.40;99.90;;;;;;5113373;28;20217;-78
2023/04/23 01:07:52;;;;;;;10.05;6.60;;;14.40;99.90;;;;;;5115074;28;20196;-79
2023/04/23 01:10:20;;;;;;;7.20;5.83;;;14.50;99.90;;;;;;5112911;28;20213;-78
2023/04/23 01:12:48;;;;;;;9.77;5.90;;;14.50;99.90;;;;;;5111862;28;20193;-79
2023/04/23 01:15:15;;;;;;;7.22;5.55;;;14.40;99.90;;;;;;5093904;28;20728;-80
2023/04/23 01:17:42;;;;;;;7.40;5.35;;;14.40;99.90;;;;;;5108323;28;20189;-77
2023/04/23 01:20:11;;;;;;;8.10;5.60;;;14.40;99.90;;;;;;5113265;28;20859;-78
2023/04/23 01:22:39;;;;;;;8.02;5.38;;;14.40;99.90;;;;;;5107634;28;20654;-77
2023/04/23 01:25:08;;;;;;;7.55;5.72;;;14.30;99.90;;;;;;5115128;28;20232;-78
2023/04/23 01:27:36;;;;;;;5.40;4.27;;;14.30;99.90;;;;;;5094481;28;20663;-78
2023/04/23 01:30:04;;;;;;;7.97;5.13;;;14.20;99.90;;;;;;5093364;28;20322;-77
2023/04/23 01:32:32;;;;;;;5.93;5.10;;;14.20;99.90;;;;;;5114102;28;20673;-77
2023/04/23 01:34:59;;;;;;;7.30;5.23;;;14.20;99.90;;;;;;5109804;28;20208;-77
2023/04/23 01:37:29;;;;;;;7.63;5.40;;;14.10;99.90;;;;;;5114448;28;20205;-78
2023/04/23 01:39:57;;;;;;;7.85;5.18;;;14.20;99.90;;;;;;5110617;28;20243;-79
2023/04/23 01:42:24;;;;;;;6.40;4.97;;;14.30;99.90;;;;;;5104172;28;20208;-79
2023/04/23 01:44:51;;;;;;;14.50;5.57;;;14.30;99.90;;;;;;5108955;28;20217;-78
2023/04/23 01:47:19;;;;;;;7.97;5.03;;;14.30;99.90;;;;;;5114076;28;20633;-77
2023/04/23 01:49:46;;;;;;;6.07;5.10;;;14.30;99.90;;;;;;5102644;28;20294;-76
2023/04/23 01:52:12;;;;;;;6.40;5.37;;;14.40;99.90;;;;;;5113687;28;20200;-78
2023/04/23 01:54:39;;;;;;;7.05;4.88;;;14.30;99.90;;;;;;5105081;28;20199;-76
2023/04/23 01:57:07;;;;;;;8.57;5.40;;;14.30;99.90;;;;;;5106541;28;20193;-77
2023/04/23 01:59:34;;;;;;;5.73;4.60;;;14.20;99.90;;;;;;5103183;28;20228;-77
2023/04/23 02:02:01;;;;;;;7.87;4.73;;;14.20;99.90;;;;;;5114301;28;20208;-76
2023/04/23 02:04:30;;;;;;;6.40;4.93;;;14.20;99.90;;;;;;5112880;28;20196;-77
2023/04/23 02:06:57;;;;;;;8.70;6.13;;;14.20;99.90;;;;;;5105958;28;20219;-79
2023/04/23 02:09:24;;;;;;;13.80;8.87;;;14.10;99.90;;;;;;5107883;28;20573;-77
2023/04/23 02:11:51;;;;;;;15.53;9.73;;;14.10;99.90;;;;;;5111924;28;20201;-78
2023/04/23 02:14:19;;;;;;;19.23;11.70;;;14.10;99.90;;;;;;5107189;28;20204;-77
2023/04/23 02:16:46;;;;;;;21.27;12.63;;;14.00;99.90;;;;;;5101322;28;20193;-77
2023/04/23 02:19:14;;;;;;;20.27;13.20;;;14.00;99.90;;;;;;5103892;28;20221;-76
2023/04/23 02:21:41;;;;;;;21.60;14.10;;;13.90;99.90;;;;;;5113319;28;20197;-75
2023/04/23 02:24:08;;;;;;;22.77;14.93;;;13.90;99.90;;;;;;5110563;28;20197;-78
2023/04/23 02:26:35;;;;;;;24.20;15.03;;;13.80;99.90;;;;;;5105325;28;20217;-78
2023/04/23 02:29:02;;;;;;;22.80;14.43;;;13.80;99.90;;;;;;5100802;28;20221;-76
2023/04/23 02:31:30;;;;;;;22.33;13.43;;;13.80;99.90;;;;;;5112932;28;20685;-76
2023/04/23 02:33:57;;;;;;;23.03;14.70;;;13.80;99.90;;;;;;5105499;28;20667;-76
2023/04/23 02:36:23;;;;;;;20.70;12.87;;;13.80;99.90;;;;;;5113167;28;20659;-76
2023/04/23 02:38:50;;;;;;;21.40;13.90;;;13.80;99.90;;;;;;5110202;28;20594;-79
2023/04/23 02:41:17;;;;;;;20.63;13.07;;;13.80;99.90;;;;;;5113007;28;20668;-76
2023/04/23 02:43:44;;;;;;;21.73;13.17;;;13.70;99.90;;;;;;5106877;28;20193;-76
2023/04/23 02:46:11;;;;;;;20.23;12.83;;;13.60;99.90;;;;;;5109512;28;20217;-78
2023/04/23 02:48:41;;;;;;;20.47;13.27;;;13.60;99.90;;;;;;5103665;28;20217;-77
2023/04/23 02:51:09;;;;;;;19.47;12.63;;;13.40;99.90;;;;;;5108553;28;20227;-78
2023/04/23 02:53:36;;;;;;;20.07;12.93;;;13.40;99.90;;;;;;5093078;28;20200;-78
2023/04/23 02:56:03;;;;;;;18.00;11.43;;;13.30;99.90;;;;;;5108821;28;20197;-78
2023/04/23 02:58:31;;;;;;;19.53;12.27;;;13.30;99.90;;;;;;5097159;28;21747;-76
2023/04/23 03:00:57;;;;;;;19.03;12.80;;;13.20;99.90;;;;;;5111026;28;20193;-80
2023/04/23 03:03:25;;;;;;;19.17;12.47;;;13.20;99.90;;;;;;5095152;28;20210;-77
2023/04/23 03:05:54;;;;;;;21.97;14.00;;;13.00;99.90;;;;;;5106665;28;20589;-79
2023/04/23 03:08:21;;;;;;;19.50;13.17;;;13.10;99.90;;;;;;5097769;27;20933;-78
2023/04/23 03:10:48;;;;;;;19.53;12.90;;;13.10;99.90;;;;;;5112554;28;20193;-78
2023/04/23 03:13:15;;;;;;;21.17;14.10;;;13.10;99.90;;;;;;5106930;28;20654;-77
2023/04/23 03:15:42;;;;;;;19.97;13.63;;;13.10;99.90;;;;;;5109329;28;20192;-78
2023/04/23 03:18:08;;;;;;;21.50;13.37;;;13.10;99.90;;;;;;5096617;28;20201;-77
2023/04/23 03:20:36;;;;;;;21.93;14.43;;;13.10;99.90;;;;;;5108845;28;20204;-76
2023/04/23 03:23:05;;;;;;;22.83;14.87;;;13.10;99.90;;;;;;5098789;28;20296;-78
2023/04/23 03:25:32;;;;;;;22.53;14.30;;;13.10;99.90;;;;;;5107431;28;20237;-76
2023/04/23 03:27:59;;;;;;;23.13;14.90;;;13.10;99.90;;;;;;5094998;28;20243;-78
2023/04/23 03:30:26;;;;;;;23.47;15.10;;;13.00;99.90;;;;;;5110311;28;20197;-77
2023/04/23 03:32:55;;;;;;;24.27;14.93;;;13.00;99.90;;;;;;5106004;28;20202;-78
2023/04/23 03:35:22;;;;;;;22.40;14.47;;;12.90;99.90;;;;;;5100760;28;20247;-77
2023/04/23 03:37:49;;;;;;;21.93;14.00;;;12.70;99.90;;;;;;5103920;28;21943;-78
2023/04/23 03:40:17;;;;;;;22.37;14.97;;;12.70;99.90;;;;;;5111355;28;20223;-77
2023/04/23 03:42:44;;;;;;;23.77;15.23;;;12.70;99.90;;;;;;5108916;28;20209;-78
2023/04/23 03:45:12;;;;;;;24.20;15.20;;;12.80;99.90;;;;;;5101219;28;20669;-78
2023/04/23 03:47:39;;;;;;;25.00;15.83;;;12.80;99.90;;;;;;5102673;28;20219;-78
2023/04/23 03:50:07;;;;;;;23.87;15.17;;;12.80;99.90;;;;;;5094846;28;20217;-77
2023/04/23 03:52:35;;;;;;;23.93;15.47;;;12.80;99.90;;;;;;5106858;28;20263;-78
2023/04/23 03:55:02;;;;;;;25.60;15.97;;;12.70;99.90;;;;;;5100087;28;20192;-79
2023/04/23 03:57:30;;;;;;;26.90;16.47;;;12.80;99.90;;;;;;5094046;28;20206;-78
2023/04/23 03:59:56;;;;;;;25.37;16.87;;;12.80;99.90;;;;;;5093288;28;20221;-77
2023/04/23 04:02:23;;;;;;;25.20;15.93;;;12.80;99.90;;;;;;5099289;28;20208;-77
2023/04/23 04:04:50;;;;;;;25.20;16.80;;;12.80;99.90;;;;;;5109652;28;20197;-78
2023/04/23 04:07:17;;;;;;;25.20;16.07;;;12.70;99.90;;;;;;5108828;28;20681;-78
2023/04/23 04:09:45;;;;;;;26.80;17.10;;;12.70;99.90;;;;;;5111577;28;20236;-77
2023/04/23 04:12:12;;;;;;;28.63;18.50;;;12.60;99.90;;;;;;5109981;28;20201;-79
2023/04/23 04:14:40;;;;;;;31.23;20.23;;;12.60;99.90;;;;;;5112194;28;20193;-78
2023/04/23 04:17:07;;;;;;;30.13;18.77;;;12.50;99.90;;;;;;5104211;28;20197;-77
2023/04/23 04:19:34;;;;;;;33.47;21.33;;;12.60;99.90;;;;;;5108473;28;20225;-79
2023/04/23 04:22:02;;;;;;;32.87;20.13;;;12.60;99.90;;;;;;5098861;28;20571;-77
2023/04/23 04:24:31;;;;;;;33.27;19.87;;;12.50;99.90;;;;;;5109464;28;20220;-79
2023/04/23 04:26:58;;;;;;;31.93;19.23;;;12.40;99.90;;;;;;5093966;28;20565;-78
2023/04/23 04:29:25;;;;;;;37.33;21.80;;;12.40;99.90;;;;;;5110760;28;20248;-79
2023/04/23 04:31:55;;;;;;;33.67;20.33;;;12.40;99.90;;;;;;5110609;28;20208;-77
2023/04/23 04:34:22;;;;;;;30.43;18.93;;;12.40;99.90;;;;;;5110909;28;20201;-79
2023/04/23 04:36:50;;;;;;;35.93;21.30;;;12.30;99.90;;;;;;5103577;28;20196;-79
2023/04/23 04:39:18;;;;;;;34.47;21.07;;;12.30;99.90;;;;;;5104903;28;20231;-77
2023/04/23 04:41:45;;;;;;;36.00;20.77;;;12.30;99.90;;;;;;5110016;28;20233;-77
2023/04/23 04:44:13;;;;;;;35.73;21.97;;;12.40;99.90;;;;;;5109709;28;20212;-77
2023/04/23 04:46:41;;;;;;;34.17;20.97;;;12.30;99.90;;;;;;5103696;28;20239;-79
2023/04/23 04:49:10;;;;;;;35.83;20.67;;;12.40;99.90;;;;;;5107374;28;20241;-77
2023/04/23 04:51:38;;;;;;;33.17;20.13;;;12.30;99.90;;;;;;5105970;28;20190;-77
2023/04/23 04:54:05;;;;;;;34.93;21.27;;;12.40;99.90;;;;;;5112771;28;20199;-78
2023/04/23 04:56:32;;;;;;;31.03;19.40;;;12.40;99.90;;;;;;5111532;28;20193;-77
2023/04/23 04:58:58;;;;;;;35.00;20.90;;;12.40;99.90;;;;;;5111564;28;20308;-78
2023/04/23 05:01:26;;;;;;;32.43;19.37;;;12.40;99.90;;;;;;5111538;28;20208;-78
2023/04/23 05:03:53;;;;;;;32.83;20.17;;;12.30;99.90;;;;;;5113141;28;20238;-79
2023/04/23 05:06:21;;;;;;;31.23;19.67;;;12.30;99.90;;;;;;5109290;28;20227;-78
2023/04/23 05:08:48;;;;;;;32.30;20.07;;;12.40;99.90;;;;;;5110081;28;20223;-78
2023/04/23 05:11:16;;;;;;;32.33;19.63;;;12.30;99.90;;;;;;5103441;28;20205;-79
2023/04/23 05:13:43;;;;;;;31.50;19.87;;;12.30;99.90;;;;;;5109052;28;20197;-78
2023/04/23 05:16:10;;;;;;;31.30;19.70;;;12.30;99.90;;;;;;5107956;28;20204;-77
2023/04/23 05:18:37;;;;;;;32.37;19.40;;;12.30;99.90;;;;;;5108383;28;20312;-78
2023/04/23 05:21:05;;;;;;;31.87;19.93;;;12.30;99.90;;;;;;5109313;28;20288;-77
2023/04/23 05:23:33;;;;;;;32.00;21.03;;;12.10;99.90;;;;;;5109856;28;20573;-78
2023/04/23 05:26:02;;;;;;;34.03;20.17;;;12.10;99.90;;;;;;5101564;28;20225;-79
2023/04/23 05:28:29;;;;;;;34.50;20.50;;;12.10;99.90;;;;;;5113399;28;20247;-77
2023/04/23 05:30:57;;;;;;;33.70;20.37;;;12.10;99.90;;;;;;5106886;28;20198;-78
2023/04/23 05:33:24;;;;;;;32.30;20.57;;;12.00;99.90;;;;;;5103728;28;20209;-80
2023/04/23 05:35:51;;;;;;;34.90;21.27;;;11.90;99.90;;;;;;5114156;28;20205;-80
2023/04/23 05:38:18;;;;;;;36.07;20.97;;;12.00;99.90;;;;;;5103431;28;20221;-79
2023/04/23 05:40:46;;;;;;;33.03;19.97;;;12.10;99.90;;;;;;5098022;28;20221;-79
2023/04/23 05:43:13;;;;;;;34.17;20.37;;;12.20;99.90;;;;;;5101558;28;20201;-77
2023/04/23 05:45:40;;;;;;;31.17;19.77;;;12.10;99.90;;;;;;5108030;28;20743;-79
2023/04/23 05:48:07;;;;;;;32.43;19.80;;;12.10;99.90;;;;;;5110041;28;20248;-78
2023/04/23 05:50:34;;;;;;;33.87;20.90;;;12.20;99.90;;;;;;5105096;28;20216;-78
2023/04/23 05:53:00;;;;;;;33.93;19.50;;;12.20;99.90;;;;;;5107910;28;20201;-79
2023/04/23 05:55:27;;;;;;;34.00;20.37;;;12.40;99.90;;;;;;5109600;28;20288;-79
2023/04/23 05:57:55;;;;;;;32.33;19.60;;;12.20;99.90;;;;;;5101622;28;20243;-79
2023/04/23 06:00:22;;;;;;;34.30;20.43;;;12.20;99.90;;;;;;5104839;28;20355;-78
2023/04/23 06:02:49;;;;;;;36.00;21.20;;;12.10;99.90;;;;;;5104668;28;20203;-79
2023/04/23 06:05:16;;;;;;;33.70;20.67;;;12.20;99.90;;;;;;5113273;28;20205;-80
2023/04/23 06:07:42;;;;;;;34.10;19.93;;;12.10;99.90;;;;;;5111108;28;20224;-80
2023/04/23 06:10:09;;;;;;;36.10;22.13;;;12.00;99.90;;;;;;5113113;28;20221;-79
2023/04/23 06:12:38;;;;;;;36.17;21.67;;;12.00;99.90;;;;;;5102228;28;20197;-78
2023/04/23 06:15:08;;;;;;;34.60;20.50;;;12.10;99.90;;;;;;5110208;28;20207;-79
2023/04/23 06:17:35;;;;;;;33.30;20.20;;;12.00;99.90;;;;;;5109198;27;20251;-81
2023/04/23 06:20:03;;;;;;;32.47;19.50;;;11.90;99.90;;;;;;5109344;28;20576;-78
2023/04/23 06:22:31;;;;;;;32.70;20.27;;;12.10;99.90;;;;;;5106328;28;20228;-78
2023/04/23 06:24:57;;;;;;;35.83;22.27;;;12.20;99.90;;;;;;5105521;28;20201;-79
2023/04/23 06:27:25;;;;;;;34.37;20.10;;;12.10;99.90;;;;;;5109720;28;20229;-78
2023/04/23 06:29:52;;;;;;;32.70;20.07;;;12.10;99.90;;;;;;5099057;28;20217;-79
2023/04/23 06:32:21;;;;;;;35.53;20.60;;;12.10;99.90;;;;;;5105673;28;20193;-78
2023/04/23 06:34:48;;;;;;;32.83;20.10;;;12.10;99.90;;;;;;5097552;28;20205;-79
2023/04/23 06:37:15;;;;;;;33.97;20.97;;;12.10;99.90;;;;;;5108495;28;20616;-78
2023/04/23 06:39:42;;;;;;;33.20;20.30;;;12.20;99.90;;;;;;5100408;28;20683;-78
2023/04/23 06:42:09;;;;;;;32.53;20.47;;;12.30;99.90;;;;;;5112383;28;20202;-80
2023/04/23 06:44:35;;;;;;;33.97;20.10;;;12.00;99.90;;;;;;5097108;28;20567;-78
2023/04/23 06:47:02;;;;;;;33.90;21.23;;;12.00;99.90;;;;;;5108047;28;20228;-81
2023/04/23 06:49:30;;;;;;;33.57;20.30;;;12.00;99.90;;;;;;5105122;28;20216;-80
2023/04/23 06:51:57;;;;;;;34.73;20.07;;;12.20;99.90;;;;;;5108155;28;20655;-78
2023/04/23 06:54:24;;;;;;;34.37;20.80;;;12.50;99.90;;;;;;5098074;28;20589;-79
2023/04/23 06:56:51;;;;;;;37.93;21.87;;;12.60;99.90;;;;;;5102266;28;20197;-78
2023/04/23 06:59:18;;;;;;;34.07;21.03;;;12.60;99.90;;;;;;5111202;28;20224;-77
2023/04/23 07:01:45;;;;;;;32.80;20.90;;;12.70;99.90;;;;;;5099115;28;21644;-79
2023/04/23 07:04:11;;;;;;;34.03;22.20;;;12.80;99.90;;;;;;5104851;28;20206;-78
2023/04/23 07:06:40;;;;;;;33.03;20.53;;;12.90;99.90;;;;;;5112324;28;20217;-77
2023/04/23 07:09:06;;;;;;;33.73;20.77;;;13.00;99.90;;;;;;5102735;28;20300;-78
2023/04/23 07:11:35;;;;;;;31.57;20.40;;;12.90;99.90;;;;;;5099087;28;20202;-79
2023/04/23 07:14:02;;;;;;;33.20;20.30;;;13.00;99.90;;;;;;5106800;28;20193;-80
2023/04/23 07:16:32;;;;;;;33.43;20.40;;;13.00;99.90;;;;;;5105442;28;20195;-77
2023/04/23 07:18:59;;;;;;;33.23;20.07;;;13.30;99.90;;;;;;5105716;28;20248;-78
2023/04/23 07:21:27;;;;;;;33.87;20.67;;;13.40;99.90;;;;;;5108314;28;20289;-78
2023/04/23 07:23:56;;;;;;;32.20;20.67;;;13.40;99.90;;;;;;5105398;28;20305;-79
2023/04/23 07:26:26;;;;;;;35.53;20.87;;;13.70;99.90;;;;;;5097164;28;20221;-77
2023/04/23 07:28:53;;;;;;;35.73;21.77;;;14.30;99.90;;;;;;5104798;28;20223;-79
2023/04/23 07:31:20;;;;;;;33.33;20.20;;;14.40;99.90;;;;;;5105801;28;20205;-78
2023/04/23 07:33:47;;;;;;;35.70;22.03;;;14.40;99.90;;;;;;5100391;28;20201;-80
2023/04/23 07:36:14;;;;;;;33.90;22.30;;;14.40;99.90;;;;;;5106659;28;20197;-80
2023/04/23 07:38:41;;;;;;;36.20;22.23;;;14.50;99.90;;;;;;5097761;28;20481;-81
2023/04/23 07:41:09;;;;;;;32.80;22.03;;;14.30;99.90;;;;;;5100606;28;20221;-79
2023/04/23 07:43:35;;;;;;;33.77;20.57;;;14.10;99.90;;;;;;5095433;28;20209;-79
2023/04/23 07:46:02;;;;;;;33.93;22.13;;;14.10;99.90;;;;;;5110330;28;20697;-81
2023/04/23 07:48:29;;;;;;;32.80;21.50;;;14.10;99.90;;;;;;5098627;28;20217;-79
2023/04/23 07:50:56;;;;;;;31.93;21.57;;;14.10;99.90;;;;;;5111273;28;20654;-77
2023/04/23 07:53:23;;;;;;;30.70;21.07;;;14.60;99.90;;;;;;5105189;28;20630;-78
2023/04/23 07:55:50;;;;;;;30.47;20.03;;;14.80;99.90;;;;;;5104351;28;20287;-77
2023/04/23 07:58:18;;;;;;;30.40;19.33;;;14.40;99.90;;;;;;5103667;28;20228;-81
2023/04/23 08:00:45;;;;;;;30.67;18.73;;;14.70;99.90;;;;;;5100437;28;20305;-77
2023/04/23 08:03:12;;;;;;;24.00;15.55;;;14.80;99.90;;;;;;5094767;28;20289;-77
2023/04/23 08:05:40;;;;;;;26.83;16.83;;;14.60;99.90;;;;;;5100397;28;20207;-77
2023/04/23 08:08:06;;;;;;;25.23;16.73;;;14.60;99.90;;;;;;5110937;28;20312;-76
2023/04/23 08:10:33;;;;;;;28.48;18.23;;;14.80;99.90;;;;;;5107361;28;20205;-77
2023/04/23 08:13:00;;;;;;;27.27;17.33;;;14.60;99.90;;;;;;5102592;28;20204;-77
2023/04/23 08:15:28;;;;;;;28.13;17.52;;;14.70;99.90;;;;;;5096528;28;20670;-78
2023/04/23 08:17:55;;;;;;;29.50;17.55;;;14.80;99.90;;;;;;5103697;28;20579;-78
2023/04/23 08:20:22;;;;;;;29.30;18.80;;;14.80;99.90;;;;;;5103779;28;20201;-79
2023/04/23 08:22:52;;;;;;;31.53;17.63;;;14.70;99.90;;;;;;5094502;28;20208;-78
2023/04/23 08:25:19;;;;;;;27.23;15.87;;;14.80;99.90;;;;;;5099029;28;20209;-80
2023/04/23 08:27:45;;;;;;;25.90;16.13;;;15.00;99.90;;;;;;5102584;28;20235;-79
2023/04/23 08:30:13;;;;;;;26.90;17.17;;;15.20;99.90;;;;;;5106842;28;20596;-79
2023/04/23 08:32:41;;;;;;;31.47;18.50;;;15.30;99.90;;;;;;5110645;28;20215;-78
2023/04/23 08:35:09;;;;;;;26.90;17.10;;;15.40;99.90;;;;;;5097663;28;20207;-79
2023/04/23 08:37:37;;;;;;;26.40;16.90;;;15.20;99.90;;;;;;5110661;28;20236;-78
2023/04/23 08:40:05;;;;;;;25.27;15.95;;;15.40;99.90;;;;;;5099186;28;20221;-78
2023/04/23 08:42:41;;;;;;;22.40;13.57;;;15.60;99.90;;;;;;5099003;28;20198;-77
2023/04/23 08:45:09;;;;;;;22.27;13.60;;;15.40;99.90;;;;;;5092154;28;20207;-79
2023/04/23 08:47:39;;;;;;;22.73;13.63;;;15.60;99.90;;;;;;5098230;28;20613;-77
2023/04/23 08:50:09;;;;;;;21.83;13.13;;;16.20;99.90;;;;;;5094489;28;20247;-78
2023/04/23 08:52:40;;;;;;;20.90;13.10;;;16.10;99.90;;;;;;5103754;28;20280;-77
2023/04/23 08:55:10;;;;;;;21.85;12.73;;;16.20;99.90;;;;;;5102371;28;20198;-77
2023/04/23 08:57:39;;;;;;;21.38;13.40;;;16.80;99.90;;;;;;5107953;28;20204;-77
2023/04/23 09:00:09;;;;;;;22.08;12.55;;;16.80;99.90;;;;;;5103598;28;20686;-78
2023/04/23 09:02:37;;;;;;;19.48;11.45;;;17.30;99.90;;;;;;5103578;28;20198;-77
2023/04/23 09:05:04;;;;;;;18.92;12.02;;;17.20;99.90;;;;;;5108616;27;20284;-80
2023/04/23 09:07:33;;;;;;;18.52;11.55;;;17.20;99.90;;;;;;5107584;28;20221;-77
2023/04/23 09:10:00;;;;;;;20.13;12.18;;;17.40;99.90;;;;;;5108331;28;20735;-79
2023/04/23 09:12:27;;;;;;;18.30;11.63;;;17.90;99.90;;;;;;5106638;28;20208;-78
2023/04/23 09:14:54;;;;;;;19.92;12.68;;;18.10;99.90;;;;;;5110629;28;20196;-80
2023/04/23 09:17:23;;;;;;;17.75;11.43;;;18.10;99.90;;;;;;5102854;28;20690;-78
2023/04/23 09:19:51;;;;;;;16.73;11.00;;;17.90;99.90;;;;;;5107176;28;20220;-79
2023/04/23 09:22:44;;;;;;;17.05;11.40;;;18.10;99.90;;;;;;5101318;28;20267;-79
2023/04/23 09:25:13;;;;;;;17.95;10.73;;;18.30;99.90;;;;;;5110791;27;20205;-79
2023/04/23 09:27:40;;;;;;;19.08;10.90;;;18.60;99.90;;;;;;5099358;27;20221;-79
2023/04/23 09:30:10;;;;;;;17.52;10.88;;;18.40;99.90;;;;;;5106412;28;20682;-80
2023/04/23 09:32:38;;;;;;;17.67;11.43;;;18.60;99.90;;;;;;5109245;28;20201;-80
2023/04/23 09:35:06;;;;;;;17.08;11.55;;;18.80;99.90;;;;;;5102288;28;20197;-80
2023/04/23 09:37:34;;;;;;;16.98;11.45;;;19.10;99.90;;;;;;5111077;28;20193;-78
2023/04/23 09:40:05;;;;;;;14.55;9.15;;;19.00;99.90;;;;;;5106298;28;20678;-79
2023/04/23 09:42:34;;;;;;;16.17;10.30;;;19.10;99.90;;;;;;5103466;28;20205;-78
2023/04/23 09:45:04;;;;;;;15.63;9.80;;;19.10;99.90;;;;;;5106596;28;20193;-77
2023/04/23 09:47:32;;;;;;;15.52;9.98;;;19.10;99.90;;;;;;5105290;28;20237;-78
2023/04/23 09:50:00;;;;;;;15.70;10.25;;;19.60;99.90;;;;;;5112556;28;20665;-78
2023/04/23 09:52:28;;;;;;;15.90;10.50;;;19.40;99.90;;;;;;5102078;28;20368;-78
2023/04/23 09:54:57;;;;;;;16.58;10.43;;;19.40;99.90;;;;;;5100026;28;20197;-78
2023/04/23 09:57:26;;;;;;;15.52;9.45;;;19.90;99.90;;;;;;5100068;28;20198;-79
2023/04/23 09:59:53;;;;;;;15.20;10.50;;;19.90;99.90;;;;;;5106477;28;20222;-78
2023/04/23 10:02:19;;;;;;;17.27;10.90;;;19.60;99.90;;;;;;5099555;28;20593;-78
2023/04/23 10:04:51;;;;;;;9.43;6.57;;;19.80;99.90;;;;;;5098007;28;20244;-79
2023/04/23 10:07:18;;;;;;;9.70;6.93;;;19.50;99.90;;;;;;5101084;28;20213;-80
2023/04/23 10:09:45;;;;;;;12.00;7.32;;;19.50;99.90;;;;;;5105211;28;20228;-78
2023/04/23 10:12:14;;;;;;;10.43;7.53;;;19.80;99.90;;;;;;5099665;28;20196;-79
2023/04/23 10:14:43;;;;;;;10.05;7.28;;;19.60;99.90;;;;;;5111976;28;20291;-79
2023/04/23 10:17:10;;;;;;;10.55;7.65;;;20.30;99.90;;;;;;5113809;28;20225;-79
2023/04/23 10:19:39;;;;;;;11.18;7.82;;;20.20;99.90;;;;;;5105365;28;20304;-79
2023/04/23 10:22:10;;;;;;;9.88;7.25;;;20.30;1.00;;;;;;5102688;28;20613;-79
2023/04/23 10:24:40;;;;;;;10.45;6.30;;;20.90;1.00;;;;;;5095523;28;20213;-80
2023/04/23 10:27:15;;;;;;;10.05;7.05;;;20.70;1.00;;;;;;5102801;28;20209;-79
2023/04/23 10:29:44;;;;;;;8.95;6.97;;;20.60;99.90;;;;;;5099834;28;20223;-79
2023/04/23 10:32:12;;;;;;;11.07;7.50;;;20.30;1.00;;;;;;5103769;28;20216;-79
2023/04/23 10:34:40;;;;;;;9.35;6.65;;;20.40;1.00;;;;;;5098804;28;20201;-80
2023/04/23 10:37:07;;;;;;;8.98;6.60;;;20.40;1.00;;;;;;5108244;28;20223;-78
2023/04/23 10:39:35;;;;;;;7.85;6.05;;;20.60;99.90;;;;;;5101487;28;20254;-78
2023/04/23 10:42:04;;;;;;;10.10;7.07;;;20.50;1.00;;;;;;5106867;28;20815;-77
2023/04/23 10:44:37;;;;;;;9.23;6.90;;;20.90;1.00;;;;;;5108190;28;20620;-83
2023/04/23 10:47:06;;;;;;;8.25;5.97;;;21.40;1.00;;;;;;5105598;28;20194;-79
2023/04/23 10:49:34;;;;;;;5.90;4.95;;;21.20;1.00;;;;;;5103032;28;20227;-77
2023/04/23 10:52:02;;;;;;;9.43;5.93;;;21.30;99.90;;;;;;5107342;28;20261;-77
2023/04/23 10:57:14;;;;;;;8.85;6.35;;;20.90;1.00;;;;;;5095011;28;20211;-76
2023/04/23 10:59:51;;;;;;;7.90;5.88;;;21.00;1.00;;;;;;5098391;28;20221;-78
2023/04/23 11:02:19;;;;;;;6.32;5.65;;;21.20;1.00;;;;;;5106826;28;20658;-77
2023/04/23 11:04:47;;;;;;;7.53;5.70;;;21.30;1.00;;;;;;5100686;28;20255;-79
2023/04/23 11:07:14;;;;;;;6.28;4.80;;;21.00;99.90;;;;;;5111013;28;20205;-77
2023/04/23 11:09:43;;;;;;;7.25;5.10;;;21.30;99.90;;;;;;5099898;28;20259;-76
2023/04/23 11:12:12;;;;;;;6.80;5.80;;;21.40;99.90;;;;;;5099309;28;20198;-77
2023/04/23 11:14:58;;;;;;;6.13;4.88;;;21.10;99.90;;;;;;5095356;28;20193;-77
2023/04/23 11:18:02;;;;;;;5.90;4.82;;;21.50;62.70;;;;;;5107275;28;20201;-80
2023/04/23 11:20:29;;;;;;;9.10;5.38;;;22.30;92.10;;;;;;5101171;28;20643;-79
2023/04/23 11:22:55;;;;;;;6.78;5.50;;;22.40;1.00;;;;;;5103179;28;20205;-78
2023/04/23 11:25:24;;;;;;;5.30;4.80;;;22.80;1.00;;;;;;5107933;28;20655;-79
2023/04/23 11:27:51;;;;;;;6.82;4.97;;;22.00;1.00;;;;;;5100389;28;20748;-80
2023/04/23 11:30:20;;;;;;;4.93;4.28;;;21.20;1.00;;;;;;5110709;28;20229;-79
2023/04/23 11:32:50;;;;;;;6.88;4.80;;;22.10;1.00;;;;;;5111491;28;20207;-82
2023/04/23 11:35:19;;;;;;;5.38;3.78;;;21.90;1.00;;;;;;5109975;28;20279;-77
2023/04/23 11:37:47;;;;;;;5.22;4.32;;;22.40;1.00;;;;;;5109405;28;20200;-78
2023/04/23 11:40:18;;;;;;;4.82;3.88;;;22.40;1.00;;;;;;5100364;28;20221;-79
2023/04/23 11:42:46;;;;;;;4.82;4.15;;;21.80;99.90;;;;;;5111371;28;20204;-78
2023/04/23 11:45:17;;;;;;;4.75;4.13;;;22.70;99.90;;;;;;5105006;28;21040;-78
2023/04/23 11:47:45;;;;;;;4.53;4.13;;;22.90;99.90;;;;;;5107414;28;20220;-79
2023/04/23 11:50:17;;;;;;;6.55;5.28;;;22.60;99.90;;;;;;5106826;28;20420;-79
2023/04/23 11:52:44;;;;;;;5.07;4.50;;;22.30;10.50;;;;;;5102672;28;20205;-78
2023/04/23 11:55:12;;;;;;;4.45;4.05;;;21.70;1.00;;;;;;5104178;28;20201;-79
2023/04/23 11:57:44;;;;;;;5.22;4.50;;;21.60;1.00;;;;;;5102102;28;20220;-79
2023/04/23 12:00:14;;;;;;;6.05;4.13;;;21.30;1.00;;;;;;5100369;28;20248;-78
2023/04/23 12:02:53;;;;;;;4.25;3.80;;;21.10;1.00;;;;;;5100523;28;20284;-78
2023/04/23 12:05:22;;;;;;;4.32;3.83;;;21.30;1.00;;;;;;5103564;28;20211;-78
2023/04/23 12:07:51;;;;;;;4.00;3.60;;;21.20;1.00;;;;;;5105287;28;20216;-78
2023/04/23 12:10:19;;;;;;;3.70;3.30;;;21.00;1.00;;;;;;5107403;28;20714;-79
2023/04/23 12:12:50;;;;;;;6.82;5.35;;;20.80;1.00;;;;;;5106103;28;20565;-79
2023/04/23 12:15:17;;;;;;;3.38;3.08;;;20.90;1.00;;;;;;5108497;28;20205;-77
2023/04/23 12:17:48;;;;;;;3.88;3.58;;;20.80;1.00;;;;;;5110829;28;20208;-78
2023/04/23 12:20:18;;;;;;;3.60;3.30;;;20.80;99.90;;;;;;5105706;28;20228;-78
2023/04/23 12:22:46;;;;;;;2.80;2.60;;;20.50;99.90;;;;;;5103560;28;20262;-77
2023/04/23 12:25:14;;;;;;;2.20;2.10;;;19.70;99.90;;;;;;5105296;28;20270;-77
2023/04/23 12:27:44;;;;;;;2.72;2.53;;;19.10;99.90;;;;;;5111098;28;20624;-79
2023/04/23 12:30:12;;;;;;;2.40;2.20;;;18.80;1.00;;;;;;5101932;28;20232;-78
2023/04/23 12:32:38;;;;;;;3.05;2.30;;;18.30;1.00;;;;;;5102175;28;20555;-79
2023/04/23 12:35:08;;;;;;;2.33;2.10;;;18.40;1.00;;;;;;5103982;28;20862;-78
2023/04/23 12:37:37;;;;;;;2.67;2.25;;;18.50;1.00;;;;;;5097976;28;20663;-78
2023/04/23 12:40:07;;;;;;;3.28;2.08;;;18.60;99.90;;;;;;5104700;28;20217;-78
2023/04/23 12:42:35;;;;;;;1.90;1.80;;;18.90;1.00;;;;;;5102379;28;20696;-78